Racecast

Aiden Lota

Virginia Beach Flames (VA) · 3 · Compare head to head

Athlete rating 139.6 2026 TF season
Best race 143.1 TF
Races 31
Seasons 1 2026
Rating scale ?
Speed rating — all races

Track & Field

TF speed rating

2026 TF 136.1

Virginia Beach Flames (VA) · Grade 3

Date Meet Event Result Place Rating Difficulty PR/SR Flags
2026-06-13 AAU Virginia District Qualifier - South 3000m 10:33.23 1st · 1st on team 140.8 -0.033 ★PR SR
2026-06-13 AAU Virginia District Qualifier - South 800m 2:34.41 4th · 1st on team 135.4 -0.033
2026-06-13 AAU Virginia District Qualifier - South 1500m 5:06.71 1st · 1st on team 136.4 -0.033
2026-05-30 Va Beach Flames Invite 1500m 5:00.87 1st · 1st on team 140.4 -0.023
2026-05-30 Va Beach Flames Invite 800m 2:37.31 2nd · 1st on team 134.2 -0.023
2026-05-30 Va Beach Flames Invite 3000m 10:36.97 1st · 1st on team 141.4 -0.023
2026-05-24 HR Hurricanes CAT 5 Invite 800m 2:34.26 3rd · 1st on team 135.2 -0.035
2026-05-16 2026 Technique Relays 800m 2:33.89 1st · 1st on team 135.5 -0.035 ★PR SR
2026-05-16 2026 Technique Relays 1500m 4:58.91 1st · 1st on team 139.6 -0.035
2026-05-09 VA "Legends" T & F Youth Invite 1500m 4:58.73 1st · 1st on team 140.0 -0.033 ★PR SR
2026-05-09 VA "Legends" T & F Youth Invite 3000m 10:53.22 1st · 1st on team 136.5 -0.033
2026-05-02 The DMV Track and Field Classic 1500m 5:12.97 1st · 1st on team 135.2 -0.021
2026-05-02 The DMV Track and Field Classic 800m 2:40.01 1st · 1st on team 132.2 -0.021 PR SR
2026-05-02 The DMV Track and Field Classic 3000m 10:47.05 1st · 1st on team 139.4 -0.021
2026-04-26 Virginia Pride Spring Kick-Off 1500m 5:10.26 4th · 1st on team 135.3 -0.029
2026-04-26 Virginia Pride Spring Kick-Off 3000m 10:52.61 1st · 1st on team 137.1 -0.029
2026-03-06 AAU Indoor National Championship 3000m 10:33.53 1st · 1st on team 143.1 -0.036 ★R RSR
2026-03-06 AAU Indoor National Championship 1500m 5:06.62 3rd · 1st on team 136.3 -0.036
2026-02-22 3rd Annual HRH Winter Storm Classic 1500m 5:04.38 1st · 1st on team 138.6 -0.024 PR SR
2026-02-22 3rd Annual HRH Winter Storm Classic 3000m 10:33.32 1st · 1st on team 142.0 -0.024 PR R SR RSR
2026-01-31 BWSP Queens and Kings - Meet 3 1500m 5:16.18 2nd · 1st on team 133.4 -0.024
2026-01-31 BWSP Queens and Kings - Meet 3 3000m 10:47.09 1st · 1st on team 139.0 -0.024 R RSR
2026-01-31 BWSP Queens and Kings - Meet 3 800m 2:43.21 2nd · 1st on team 129.2 -0.024
2026-01-25 Virginia Beach Flames Invitational 800m 2:40.64 1st · 1st on team 130.3 -0.036 PR SR
2026-01-25 Virginia Beach Flames Invitational 1500m 5:14.56 1st · 1st on team 132.9 -0.036
2026-01-11 Lighting Track Classic 3000m 11:01.16 1st · 1st on team 137.1 -0.036
2026-01-11 Lighting Track Classic 1500m 5:21.79 1st · 1st on team 129.9 -0.036
2026-01-04 Coach Miami Presents The DMV's INDOOR SPRINTFEST 800m 2:43.35 4th · 1st on team 128.1 -0.036 PR SR
2026-01-04 Coach Miami Presents The DMV's INDOOR SPRINTFEST 1500m 5:21.66 1st · 1st on team 129.9 -0.036
2025-10-30 AAU 14U Indoor National Championship 3000m 10:46.15 1st · 1st on team 137.7 -0.039 PR R SR RSR
2025-10-30 AAU 14U Indoor National Championship 1500m 5:07.08 1st · 1st on team 136.7 -0.039 PR SR